Falcon — WBE7134 — position and weather

sailwx.info

Track history (hours):
 
Tides and Currents Weather Stations Pressure Air Temp Water Temp Dewpoint Dewpoint Depression Visibility Wind Speed Wind Dir Waves Ship Positions

Falcon

Owner: Allied Transportation Company, NORFOLK, VA. More information available from US FCC via Universal Licensing System and Coast Guard Vessel Documentation Center.

Last reported at 2017-Jul-22 19:50 UTC. Time now 2017-Jul-24 22:38 UTC.
Position N 32°24' W 079°47'.

Length 37 m; draft 8 m.

Type: Tug. MMSI: 366976720.

Date/timePositionNaut miles runAvg speedWind from/ knotsBaromVisibWave heightAir tempDewpointWater temp
2017-Jul-22 19:50N 32°24' W 079°47'41 6.1
2017-Jul-22 13:01N 31°51' W 080°16'0 6.7
2017-Jul-22 13:01N 31°51' W 080°16'3 6.6
2017-Jul-22 12:31N 31°48' W 080°18'27 6.4
2017-Jul-22 08:18N 31°23' W 080°29'37 6.0
2017-Jul-22 02:08N 30°47' W 080°40'223 6.3
2017-Jul-20 14:41N 27°07' W 079°59'6 8.2
2017-Jul-20 14:00N 27°02' W 079°59'5 9.6
2017-Jul-20 13:30N 26°57' W 079°59'5 9.8
2017-Jul-20 13:00N 26°52' W 079°59'5 9.3
2017-Jul-20 12:27N 26°47' W 079°59'2 4.9
2017-Jul-20 11:57N 26°46' W 080°02'  
2017-Jul-17 13:18N 26°46' W 080°03'0 1.5
2017-Jul-17 13:00N 26°46' W 080°02'2 3.8
2017-Jul-17 12:29N 26°46' W 080°00'1 2.8
2017-Jul-17 12:00N 26°48' W 080°01'4 7.3
2017-Jul-17 11:30N 26°51' W 080°01'4 7.3
2017-Jul-17 11:00N 26°55' W 080°01'4 7.6
2017-Jul-17 10:30N 26°59' W 080°01'4 7.4
2017-Jul-17 10:00N 27°02' W 080°01'252 7.6
2017-Jul-16 00:46N 31°13' W 080°30'8 8.2
2017-Jul-15 23:48N 31°20' W 080°27'3 8.3
2017-Jul-15 23:30N 31°23' W 080°25'4 8.3
2017-Jul-15 23:00N 31°27' W 080°24'13 8.3
2017-Jul-15 21:24N 31°39' W 080°17'12 8.2
2017-Jul-15 20:00N 31°49' W 080°11'4 8.1
2017-Jul-15 19:30N 31°52' W 080°08'214 7.6
2017-Jul-14 15:30N 34°02' W 076°45'21 8.3
2017-Jul-14 12:55N 34°16' W 076°26'14 8.1
2017-Jul-14 11:13N 34°26' W 076°14'26 7.7
2017-Jul-14 07:48N 34°43' W 075°50'26 7.0
2017-Jul-14 04:07N 35°01' W 075°28'1 7.1
2017-Jul-14 03:57N 35°02' W 075°27'3 7.0
2017-Jul-14 03:27N 35°05' W 075°23'6 6.9
2017-Jul-14 02:31N 35°11' W 075°22'0 7.4
2017-Jul-14 02:30N 35°11' W 075°22'7 7.9
2017-Jul-14 01:39N 35°18' W 075°22'2 8.4
2017-Jul-14 01:22N 35°20' W 075°22'90 8.4
2017-Jul-13 14:37N 36°48' W 075°47'2 8.7
2017-Jul-13 14:21N 36°49' W 075°49'3 8.8
2017-Jul-13 13:59N 36°51' W 075°52'4 9.2
2017-Jul-13 13:30N 36°55' W 075°56'4 8.7
2017-Jul-13 13:00N 36°58' W 075°59'5 9.2
2017-Jul-13 12:30N 37°01' W 076°03'32 9.0
2017-Jul-13 09:00N 37°32' W 076°10'5 8.5
2017-Jul-13 08:23N 37°38' W 076°10'3 8.4
2017-Jul-13 07:59N 37°41' W 076°11'4 8.5
2017-Jul-13 07:30N 37°45' W 076°11'4 8.1
2017-Jul-13 07:00N 37°49' W 076°11'4 7.9
2017-Jul-13 06:30N 37°53' W 076°10'5 8.1
2017-Jul-13 05:53N 37°58' W 076°12'4 8.6
2017-Jul-13 05:28N 38°01' W 076°14'5 8.7
2017-Jul-13 04:52N 38°06' W 076°15'3 8.7
2017-Jul-13 04:28N 38°09' W 076°16'4 8.8
2017-Jul-13 04:00N 38°13' W 076°18'4 8.9
2017-Jul-13 03:30N 38°18' W 076°20'4 8.8
2017-Jul-13 03:00N 38°22' W 076°21'4 8.9
2017-Jul-13 02:30N 38°26' W 076°23'4 8.6
2017-Jul-13 02:00N 38°30' W 076°25'4 8.3
2017-Jul-13 01:30N 38°34' W 076°26'4 8.1
2017-Jul-13 01:00N 38°38' W 076°26'4 8.1
2017-Jul-13 00:30N 38°42' W 076°26'4 8.1
2017-Jul-13 00:00N 38°46' W 076°26'4 7.9
2017-Jul-12 23:30N 38°50' W 076°25'4 8.0
2017-Jul-12 23:00N 38°54' W 076°25'4 8.2
2017-Jul-12 22:30N 38°58' W 076°24'4 8.1
2017-Jul-12 22:00N 39°02' W 076°23'4 8.5
2017-Jul-12 21:30N 39°06' W 076°24'4 8.5
2017-Jul-12 21:00N 39°10' W 076°26'4 8.3
2017-Jul-12 20:30N 39°12' W 076°30'3 6.7
2017-Jul-12 20:01N 39°15' W 076°33'  
Track history (hours):
 
Tides and Currents Weather Stations Pressure Air Temp Water Temp Dewpoint Dewpoint Depression Visibility Wind Speed Wind Dir Waves Ship Positions

Falcon

Owner: Allied Transportation Company, NORFOLK, VA. More information available from US FCC via Universal Licensing System and Coast Guard Vessel Documentation Center.

Last reported at 2017-Jul-22 19:50 UTC. Time now 2017-Jul-24 22:38 UTC.
Position N 32°24' W 079°47'.

Length 37 m; draft 8 m.

Type: Tug. MMSI: 366976720.

Date/timePositionNaut miles runAvg speedWind from/ knotsBaromVisibWave heightAir tempDewpointWater temp
2017-Jul-22 19:50N 32°24' W 079°47'41 6.1
2017-Jul-22 13:01N 31°51' W 080°16'0 6.7
2017-Jul-22 13:01N 31°51' W 080°16'3 6.6
2017-Jul-22 12:31N 31°48' W 080°18'27 6.4
2017-Jul-22 08:18N 31°23' W 080°29'37 6.0
2017-Jul-22 02:08N 30°47' W 080°40'223 6.3
2017-Jul-20 14:41N 27°07' W 079°59'6 8.2
2017-Jul-20 14:00N 27°02' W 079°59'5 9.6
2017-Jul-20 13:30N 26°57' W 079°59'5 9.8
2017-Jul-20 13:00N 26°52' W 079°59'5 9.3
2017-Jul-20 12:27N 26°47' W 079°59'2 4.9
2017-Jul-20 11:57N 26°46' W 080°02'  
2017-Jul-17 13:18N 26°46' W 080°03'0 1.5
2017-Jul-17 13:00N 26°46' W 080°02'2 3.8
2017-Jul-17 12:29N 26°46' W 080°00'1 2.8
2017-Jul-17 12:00N 26°48' W 080°01'4 7.3
2017-Jul-17 11:30N 26°51' W 080°01'4 7.3
2017-Jul-17 11:00N 26°55' W 080°01'4 7.6
2017-Jul-17 10:30N 26°59' W 080°01'4 7.4
2017-Jul-17 10:00N 27°02' W 080°01'252 7.6
2017-Jul-16 00:46N 31°13' W 080°30'8 8.2
2017-Jul-15 23:48N 31°20' W 080°27'3 8.3
2017-Jul-15 23:30N 31°23' W 080°25'4 8.3
2017-Jul-15 23:00N 31°27' W 080°24'13 8.3
2017-Jul-15 21:24N 31°39' W 080°17'12 8.2
2017-Jul-15 20:00N 31°49' W 080°11'4 8.1
2017-Jul-15 19:30N 31°52' W 080°08'214 7.6
2017-Jul-14 15:30N 34°02' W 076°45'21 8.3
2017-Jul-14 12:55N 34°16' W 076°26'14 8.1
2017-Jul-14 11:13N 34°26' W 076°14'26 7.7
2017-Jul-14 07:48N 34°43' W 075°50'26 7.0
2017-Jul-14 04:07N 35°01' W 075°28'1 7.1
2017-Jul-14 03:57N 35°02' W 075°27'3 7.0
2017-Jul-14 03:27N 35°05' W 075°23'6 6.9
2017-Jul-14 02:31N 35°11' W 075°22'0 7.4
2017-Jul-14 02:30N 35°11' W 075°22'7 7.9
2017-Jul-14 01:39N 35°18' W 075°22'2 8.4
2017-Jul-14 01:22N 35°20' W 075°22'90 8.4
2017-Jul-13 14:37N 36°48' W 075°47'2 8.7
2017-Jul-13 14:21N 36°49' W 075°49'3 8.8
2017-Jul-13 13:59N 36°51' W 075°52'4 9.2
2017-Jul-13 13:30N 36°55' W 075°56'4 8.7
2017-Jul-13 13:00N 36°58' W 075°59'5 9.2
2017-Jul-13 12:30N 37°01' W 076°03'32 9.0
2017-Jul-13 09:00N 37°32' W 076°10'5 8.5
2017-Jul-13 08:23N 37°38' W 076°10'3 8.4
2017-Jul-13 07:59N 37°41' W 076°11'4 8.5
2017-Jul-13 07:30N 37°45' W 076°11'4 8.1
2017-Jul-13 07:00N 37°49' W 076°11'4 7.9
2017-Jul-13 06:30N 37°53' W 076°10'5 8.1
2017-Jul-13 05:53N 37°58' W 076°12'4 8.6
2017-Jul-13 05:28N 38°01' W 076°14'5 8.7
2017-Jul-13 04:52N 38°06' W 076°15'3 8.7
2017-Jul-13 04:28N 38°09' W 076°16'4 8.8
2017-Jul-13 04:00N 38°13' W 076°18'4 8.9
2017-Jul-13 03:30N 38°18' W 076°20'4 8.8
2017-Jul-13 03:00N 38°22' W 076°21'4 8.9
2017-Jul-13 02:30N 38°26' W 076°23'4 8.6
2017-Jul-13 02:00N 38°30' W 076°25'4 8.3
2017-Jul-13 01:30N 38°34' W 076°26'4 8.1
2017-Jul-13 01:00N 38°38' W 076°26'4 8.1
2017-Jul-13 00:30N 38°42' W 076°26'4 8.1
2017-Jul-13 00:00N 38°46' W 076°26'4 7.9
2017-Jul-12 23:30N 38°50' W 076°25'4 8.0
2017-Jul-12 23:00N 38°54' W 076°25'4 8.2
2017-Jul-12 22:30N 38°58' W 076°24'4 8.1
2017-Jul-12 22:00N 39°02' W 076°23'4 8.5
2017-Jul-12 21:30N 39°06' W 076°24'4 8.5
2017-Jul-12 21:00N 39°10' W 076°26'4 8.3
2017-Jul-12 20:30N 39°12' W 076°30'3 6.7
2017-Jul-12 20:01N 39°15' W 076°33'  

Dump ship's entire track history